Time;durP1;ratioP1;P1;durP2;ratioP2;P2;SDS_P1;SDS_P2;PMS_P1;PMS_P2;Temp;Humidity;BMP_temperature;BMP_pressure;BME280_temperature;BME280_humidity;BME280_pressure;Samples;Min_cycle;Max_cycle;Signal;HPM_P1;HPM_P2
2021/04/24 00:00:52;;;;;;;11.50;3.47;;;;;;;;;;5056423;28;20033;-66
2021/04/24 00:03:17;;;;;;;6.90;3.53;;;;;;;;;;5056464;28;20052;-67
2021/04/24 00:05:44;;;;;;;10.95;3.92;;;;;;;;;;5056289;28;20037;-67
2021/04/24 00:08:10;;;;;;;9.95;3.85;;;;;;;;;;5056404;28;20119;-66
2021/04/24 00:10:37;;;;;;;9.10;3.30;;;;;;;;;;5056181;28;20021;-66
2021/04/24 00:13:03;;;;;;;10.32;3.50;;;;;;;;;;5056250;28;20060;-64
2021/04/24 00:15:28;;;;;;;8.90;3.97;;;;;;;;;;5056111;28;20044;-64
2021/04/24 00:17:54;;;;;;;10.38;3.72;;;;;;;;;;5056211;28;20017;-64
2021/04/24 00:20:21;;;;;;;9.65;3.92;;;;;;;;;;5055367;28;20082;-64
2021/04/24 00:22:46;;;;;;;8.40;3.33;;;;;;;;;;5056021;28;20037;-64
2021/04/24 00:25:12;;;;;;;8.82;3.75;;;;;;;;;;5055910;28;20024;-64
2021/04/24 00:27:38;;;;;;;7.65;3.58;;;;;;;;;;5055986;28;20107;-64
2021/04/24 00:30:08;;;;;;;11.95;3.70;;;;;;;;;;5055858;28;20063;-64
2021/04/24 00:32:33;;;;;;;10.10;3.38;;;;;;;;;;5054280;28;20124;-64
2021/04/24 00:34:59;;;;;;;9.98;3.75;;;;;;;;;;5055782;28;20132;-64
2021/04/24 00:37:24;;;;;;;10.63;3.45;;;;;;;;;;5055798;28;20453;-65
2021/04/24 00:39:49;;;;;;;12.55;3.53;;;;;;;;;;5055706;28;20499;-64
2021/04/24 00:42:14;;;;;;;7.97;3.17;;;;;;;;;;5055623;28;20037;-64
2021/04/24 00:44:47;;;;;;;10.15;4.35;;;;;;;;;;5055367;28;20033;-64
2021/04/24 00:47:12;;;;;;;7.85;3.58;;;;;;;;;;5055686;28;20021;-64
2021/04/24 00:49:38;;;;;;;11.32;3.97;;;;;;;;;;5055494;28;20040;-64
2021/04/24 00:52:03;;;;;;;8.88;3.88;;;;;;;;;;5055554;28;20040;-64
2021/04/24 00:54:28;;;;;;;10.15;4.10;;;;;;;;;;5055313;28;20028;-64
2021/04/24 00:56:53;;;;;;;10.73;4.43;;;;;;;;;;5055405;28;20068;-64
2021/04/24 00:59:19;;;;;;;10.27;3.63;;;;;;;;;;5055240;28;20112;-64
2021/04/24 01:01:44;;;;;;;12.93;3.92;;;;;;;;;;5054373;28;20044;-66
2021/04/24 01:04:09;;;;;;;9.35;3.92;;;;;;;;;;5055216;28;20037;-66
2021/04/24 01:06:35;;;;;;;10.82;4.75;;;;;;;;;;5055306;28;20060;-66
2021/04/24 01:09:00;;;;;;;7.90;3.97;;;;;;;;;;5055136;28;20043;-66
2021/04/24 01:11:25;;;;;;;8.70;3.78;;;;;;;;;;5054812;28;20032;-66
2021/04/24 01:13:50;;;;;;;12.23;4.20;;;;;;;;;;5055021;28;20048;-66
2021/04/24 01:16:16;;;;;;;10.60;4.13;;;;;;;;;;5055038;28;20017;-66
2021/04/24 01:18:41;;;;;;;9.15;4.68;;;;;;;;;;5055019;28;20513;-66
2021/04/24 01:21:08;;;;;;;10.77;3.95;;;;;;;;;;5054886;28;20075;-66
2021/04/24 01:23:34;;;;;;;7.78;3.83;;;;;;;;;;5054946;28;20025;-63
2021/04/24 01:26:00;;;;;;;7.28;3.95;;;;;;;;;;5054818;28;20041;-63
2021/04/24 01:28:26;;;;;;;8.85;3.47;;;;;;;;;;5054840;28;20437;-63
2021/04/24 01:30:51;;;;;;;13.52;4.20;;;;;;;;;;5055116;28;20052;-63
2021/04/24 01:33:16;;;;;;;10.68;3.60;;;;;;;;;;5054671;28;20060;-63
2021/04/24 01:35:43;;;;;;;10.07;4.60;;;;;;;;;;5054566;28;20033;-63
2021/04/24 01:38:08;;;;;;;7.35;3.58;;;;;;;;;;5053459;28;20012;-64
2021/04/24 01:40:34;;;;;;;10.15;3.95;;;;;;;;;;5054696;28;20447;-63
2021/04/24 01:43:01;;;;;;;9.88;4.13;;;;;;;;;;5054298;28;20549;-63
2021/04/24 01:45:26;;;;;;;10.90;4.40;;;;;;;;;;5053074;28;20017;-63
2021/04/24 01:47:52;;;;;;;9.60;4.22;;;;;;;;;;5054569;28;20136;-63
2021/04/24 01:50:19;;;;;;;6.60;3.53;;;;;;;;;;5054299;28;20041;-64
2021/04/24 01:52:46;;;;;;;10.75;4.18;;;;;;;;;;5054372;28;20017;-63
2021/04/24 01:55:15;;;;;;;14.80;4.03;;;;;;;;;;5054297;28;20095;-63
2021/04/24 01:57:42;;;;;;;8.55;4.13;;;;;;;;;;5054273;28;20033;-63
2021/04/24 02:00:09;;;;;;;11.88;4.18;;;;;;;;;;5053787;28;20031;-63
2021/04/24 02:02:34;;;;;;;13.02;4.00;;;;;;;;;;5053908;28;20029;-63
2021/04/24 02:05:00;;;;;;;12.57;5.15;;;;;;;;;;5054378;28;20033;-63
2021/04/24 02:07:26;;;;;;;10.90;4.28;;;;;;;;;;5054074;28;20021;-63
2021/04/24 02:09:51;;;;;;;10.90;4.53;;;;;;;;;;5054229;28;20094;-63
2021/04/24 02:12:16;;;;;;;6.50;4.10;;;;;;;;;;5053470;28;20037;-63
2021/04/24 02:14:43;;;;;;;11.55;4.65;;;;;;;;;;5053767;28;20029;-64
2021/04/24 02:17:09;;;;;;;11.73;4.57;;;;;;;;;;5053925;28;20422;-63
2021/04/24 02:19:38;;;;;;;13.23;4.80;;;;;;;;;;5053816;28;20033;-63
2021/04/24 02:22:04;;;;;;;14.32;4.75;;;;;;;;;;5053867;28;20020;-63
2021/04/24 02:24:37;;;;;;;9.55;4.45;;;;;;;;;;5053336;28;20377;-63
2021/04/24 02:27:03;;;;;;;13.98;4.82;;;;;;;;;;5053504;28;20474;-63
2021/04/24 02:29:28;;;;;;;11.85;3.92;;;;;;;;;;5053661;28;20393;-63
2021/04/24 02:31:53;;;;;;;10.38;4.55;;;;;;;;;;5053842;28;20171;-63
2021/04/24 02:34:19;;;;;;;17.73;6.30;;;;;;;;;;5053181;28;20549;-63
2021/04/24 02:36:44;;;;;;;9.35;4.18;;;;;;;;;;5053600;28;20017;-63
2021/04/24 02:39:09;;;;;;;9.75;4.72;;;;;;;;;;5053232;28;20539;-63
2021/04/24 02:41:34;;;;;;;10.02;5.45;;;;;;;;;;5053422;28;20029;-63
2021/04/24 02:44:00;;;;;;;9.82;4.32;;;;;;;;;;5053580;28;20420;-63
2021/04/24 02:46:25;;;;;;;7.97;4.22;;;;;;;;;;5053246;28;20067;-63
2021/04/24 02:48:50;;;;;;;12.85;5.13;;;;;;;;;;5053484;28;20071;-63
2021/04/24 02:51:15;;;;;;;11.07;4.65;;;;;;;;;;5053175;28;20020;-63
2021/04/24 02:53:41;;;;;;;10.82;5.13;;;;;;;;;;5053305;28;20048;-63
2021/04/24 02:56:06;;;;;;;8.50;4.80;;;;;;;;;;5052451;28;20453;-63
2021/04/24 02:58:31;;;;;;;10.63;4.70;;;;;;;;;;5053224;28;20017;-63
2021/04/24 03:00:57;;;;;;;14.18;4.43;;;;;;;;;;5053199;28;20492;-63
2021/04/24 03:03:22;;;;;;;10.70;4.75;;;;;;;;;;5053262;28;20033;-63
2021/04/24 03:05:47;;;;;;;9.23;4.32;;;;;;;;;;5053096;28;20017;-63
2021/04/24 03:08:12;;;;;;;13.52;4.28;;;;;;;;;;5053154;28;20116;-63
2021/04/24 03:10:38;;;;;;;10.85;4.65;;;;;;;;;;5053000;28;20366;-63
2021/04/24 03:13:07;;;;;;;13.65;4.28;;;;;;;;;;5053085;28;20137;-63
2021/04/24 03:15:33;;;;;;;12.77;5.10;;;;;;;;;;5052489;28;20025;-63
2021/04/24 03:17:58;;;;;;;23.15;5.35;;;;;;;;;;5053192;28;20102;-63
2021/04/24 03:20:23;;;;;;;11.45;5.22;;;;;;;;;;5052938;28;20009;-63
2021/04/24 03:22:49;;;;;;;12.85;4.93;;;;;;;;;;5053067;28;20130;-63
2021/04/24 03:25:15;;;;;;;12.38;4.47;;;;;;;;;;5054384;28;20496;-63
2021/04/24 03:27:41;;;;;;;6.85;4.35;;;;;;;;;;5057172;28;20017;-63
2021/04/24 03:30:07;;;;;;;10.35;4.90;;;;;;;;;;5057072;28;20036;-63
2021/04/24 03:32:32;;;;;;;10.07;4.55;;;;;;;;;;5056935;28;20037;-63
2021/04/24 03:34:58;;;;;;;12.27;5.63;;;;;;;;;;5056851;28;20094;-63
2021/04/24 03:37:23;;;;;;;12.50;5.10;;;;;;;;;;5057267;28;20029;-63
2021/04/24 03:39:48;;;;;;;13.65;4.72;;;;;;;;;;5056377;28;20087;-63
2021/04/24 03:42:14;;;;;;;14.60;4.55;;;;;;;;;;5056813;28;20071;-63
2021/04/24 03:44:39;;;;;;;11.38;4.82;;;;;;;;;;5056646;28;20056;-63
2021/04/24 03:47:05;;;;;;;22.92;5.10;;;;;;;;;;5056854;28;20067;-63
2021/04/24 03:49:30;;;;;;;15.48;5.57;;;;;;;;;;5056628;28;20017;-63
2021/04/24 03:51:55;;;;;;;16.02;4.90;;;;;;;;;;5056673;28;20031;-63
2021/04/24 03:54:21;;;;;;;13.10;4.78;;;;;;;;;;5056535;28;20460;-63
2021/04/24 03:56:46;;;;;;;11.07;4.75;;;;;;;;;;5056608;28;20462;-63
2021/04/24 03:59:11;;;;;;;11.52;4.38;;;;;;;;;;5056260;28;20527;-63
2021/04/24 04:01:37;;;;;;;11.32;5.38;;;;;;;;;;5056415;28;20124;-63
2021/04/24 04:04:02;;;;;;;12.43;5.15;;;;;;;;;;5056511;28;20476;-63
2021/04/24 04:06:27;;;;;;;16.92;5.40;;;;;;;;;;5056269;28;20040;-63
2021/04/24 04:08:52;;;;;;;14.40;4.97;;;;;;;;;;5056421;28;20168;-63
2021/04/24 04:11:18;;;;;;;11.48;5.18;;;;;;;;;;5056079;28;20468;-64
2021/04/24 04:13:43;;;;;;;13.13;5.38;;;;;;;;;;5056206;28;20102;-63
2021/04/24 04:16:08;;;;;;;8.70;4.55;;;;;;;;;;5056190;28;20033;-63
2021/04/24 04:18:37;;;;;;;12.07;5.57;;;;;;;;;;5056100;28;20025;-63
2021/04/24 04:21:03;;;;;;;10.27;4.32;;;;;;;;;;5056379;28;20108;-63
2021/04/24 04:23:29;;;;;;;18.60;5.22;;;;;;;;;;5056059;28;20033;-63
2021/04/24 04:25:54;;;;;;;14.10;5.22;;;;;;;;;;5056019;28;20028;-63
2021/04/24 04:28:20;;;;;;;11.73;5.07;;;;;;;;;;5055963;28;20036;-63
2021/04/24 04:30:45;;;;;;;9.52;4.78;;;;;;;;;;5055990;28;20139;-63
2021/04/24 04:33:11;;;;;;;15.98;5.55;;;;;;;;;;5055829;28;20021;-63
2021/04/24 04:35:37;;;;;;;17.23;6.40;;;;;;;;;;5055757;28;20432;-63
2021/04/24 04:38:03;;;;;;;13.98;5.18;;;;;;;;;;5055858;28;20111;-63
2021/04/24 04:40:28;;;;;;;11.32;5.35;;;;;;;;;;5055842;28;20136;-63
2021/04/24 04:42:54;;;;;;;12.98;5.45;;;;;;;;;;5055754;28;20029;-63
2021/04/24 04:45:20;;;;;;;15.30;5.50;;;;;;;;;;5055437;28;20049;-63
2021/04/24 04:47:46;;;;;;;16.65;5.28;;;;;;;;;;5055490;28;20359;-63
2021/04/24 04:50:14;;;;;;;21.67;6.07;;;;;;;;;;5054166;28;20029;-63
2021/04/24 04:52:39;;;;;;;16.55;4.97;;;;;;;;;;5055633;28;20424;-62
2021/04/24 04:55:06;;;;;;;18.52;5.82;;;;;;;;;;5055427;28;20032;-63
2021/04/24 04:57:31;;;;;;;15.43;5.70;;;;;;;;;;5055427;28;20075;-63
2021/04/24 04:59:56;;;;;;;15.00;5.30;;;;;;;;;;5055341;28;20381;-63
2021/04/24 05:02:22;;;;;;;11.65;5.00;;;;;;;;;;5055079;28;20477;-63
2021/04/24 05:04:47;;;;;;;11.55;5.28;;;;;;;;;;5055009;28;20041;-63
2021/04/24 05:07:12;;;;;;;12.77;4.88;;;;;;;;;;5055316;28;20033;-63
2021/04/24 05:09:38;;;;;;;14.63;5.93;;;;;;;;;;5055260;28;20017;-63
2021/04/24 05:12:04;;;;;;;12.68;5.07;;;;;;;;;;5055149;28;20036;-63
2021/04/24 05:14:29;;;;;;;13.15;5.45;;;;;;;;;;5055096;28;20044;-63
2021/04/24 05:16:54;;;;;;;22.77;7.57;;;;;;;;;;5054978;28;20044;-63
2021/04/24 05:19:19;;;;;;;14.75;5.25;;;;;;;;;;5055072;28;20060;-63
2021/04/24 05:21:45;;;;;;;11.02;5.05;;;;;;;;;;5055160;28;20391;-63
2021/04/24 05:24:10;;;;;;;13.80;4.72;;;;;;;;;;5055032;28;20473;-63
2021/04/24 05:26:36;;;;;;;12.35;4.80;;;;;;;;;;5054444;28;20384;-63
2021/04/24 05:29:01;;;;;;;17.08;4.82;;;;;;;;;;5054905;28;20036;-63
2021/04/24 05:31:27;;;;;;;14.80;4.70;;;;;;;;;;5054731;28;20021;-63
2021/04/24 05:33:52;;;;;;;9.55;4.72;;;;;;;;;;5054488;28;20045;-63
2021/04/24 05:36:19;;;;;;;11.43;4.10;;;;;;;;;;5054337;28;20037;-63
2021/04/24 05:38:44;;;;;;;10.35;4.10;;;;;;;;;;5054534;28;20017;-63
2021/04/24 05:41:11;;;;;;;15.18;3.88;;;;;;;;;;5054526;28;20029;-63
2021/04/24 05:43:37;;;;;;;7.18;3.00;;;;;;;;;;5054527;28;20052;-63
2021/04/24 05:46:02;;;;;;;8.05;3.20;;;;;;;;;;5054579;28;20063;-63
2021/04/24 05:48:28;;;;;;;9.57;3.33;;;;;;;;;;5053960;28;20121;-63
2021/04/24 05:50:53;;;;;;;10.65;5.18;;;;;;;;;;5054333;28;20037;-63
2021/04/24 05:53:18;;;;;;;8.25;3.20;;;;;;;;;;5054315;28;20033;-64
2021/04/24 05:55:44;;;;;;;12.05;3.05;;;;;;;;;;5054314;28;20417;-64
2021/04/24 05:58:09;;;;;;;10.65;2.90;;;;;;;;;;5054210;28;20039;-64
2021/04/24 06:00:34;;;;;;;4.75;2.40;;;;;;;;;;5054158;28;20083;-63
2021/04/24 06:02:59;;;;;;;6.97;3.22;;;;;;;;;;5054254;28;20037;-64
2021/04/24 06:05:25;;;;;;;5.38;2.67;;;;;;;;;;5054091;28;20393;-64
2021/04/24 06:07:50;;;;;;;6.95;2.60;;;;;;;;;;5053859;28;20389;-64
2021/04/24 06:10:16;;;;;;;6.57;2.60;;;;;;;;;;5054000;28;20037;-64
2021/04/24 06:12:43;;;;;;;6.68;3.03;;;;;;;;;;5054089;28;20033;-65
2021/04/24 06:15:09;;;;;;;6.45;2.25;;;;;;;;;;5053866;28;20043;-64
2021/04/24 06:17:34;;;;;;;7.78;2.42;;;;;;;;;;5053692;28;20033;-64
2021/04/24 06:20:00;;;;;;;7.15;2.75;;;;;;;;;;5053920;28;20029;-65
2021/04/24 06:22:25;;;;;;;6.22;2.35;;;;;;;;;;5053796;28;20025;-65
2021/04/24 06:24:51;;;;;;;5.15;2.50;;;;;;;;;;5054089;28;20035;-65
2021/04/24 06:27:16;;;;;;;5.95;2.28;;;;;;;;;;5053641;28;20025;-65
2021/04/24 06:29:42;;;;;;;5.03;2.75;;;;;;;;;;5053858;28;20369;-65
2021/04/24 06:32:07;;;;;;;6.65;2.60;;;;;;;;;;5053737;28;20033;-65
2021/04/24 06:34:32;;;;;;;5.70;2.10;;;;;;;;;;5053471;28;20036;-65
2021/04/24 06:36:57;;;;;;;8.90;2.63;;;;;;;;;;5053836;28;20017;-65
2021/04/24 06:39:23;;;;;;;5.05;2.35;;;;;;;;;;5052038;28;20052;-65
2021/04/24 06:41:48;;;;;;;5.63;2.45;;;;;;;;;;5053474;28;20028;-65
2021/04/24 06:44:13;;;;;;;8.00;2.83;;;;;;;;;;5053865;28;20535;-65
2021/04/24 06:46:39;;;;;;;6.05;2.90;;;;;;;;;;5053389;28;20062;-65
2021/04/24 06:49:04;;;;;;;4.10;2.50;;;;;;;;;;5053392;28;20033;-65
2021/04/24 06:51:29;;;;;;;3.85;2.03;;;;;;;;;;5053257;28;20385;-65
2021/04/24 06:53:55;;;;;;;5.20;2.55;;;;;;;;;;5053369;28;20045;-65
2021/04/24 06:56:20;;;;;;;4.93;2.47;;;;;;;;;;5053478;28;20068;-65
2021/04/24 06:58:46;;;;;;;3.25;2.20;;;;;;;;;;5053005;28;20071;-65
2021/04/24 07:01:11;;;;;;;3.63;2.10;;;;;;;;;;5052670;28;20430;-65
2021/04/24 07:03:37;;;;;;;6.28;2.50;;;;;;;;;;5053303;28;20355;-65
2021/04/24 07:06:03;;;;;;;4.72;2.50;;;;;;;;;;5053108;28;20017;-65
2021/04/24 07:08:28;;;;;;;3.58;2.17;;;;;;;;;;5052799;28;20025;-66
2021/04/24 07:10:53;;;;;;;8.15;3.22;;;;;;;;;;5053381;28;20104;-65
2021/04/24 07:13:19;;;;;;;7.57;3.08;;;;;;;;;;5052986;28;20044;-66
2021/04/24 07:15:44;;;;;;;8.75;3.75;;;;;;;;;;5053045;28;20036;-66
2021/04/24 07:18:09;;;;;;;8.95;3.75;;;;;;;;;;5053159;28;20480;-66
2021/04/24 07:20:35;;;;;;;6.88;3.55;;;;;;;;;;5052684;28;20036;-66
2021/04/24 07:23:00;;;;;;;9.82;4.45;;;;;;;;;;5052759;28;20104;-66
2021/04/24 07:25:26;;;;;;;8.35;4.28;;;;;;;;;;5052819;28;20033;-66
2021/04/24 07:27:51;;;;;;;9.07;4.13;;;;;;;;;;5053014;28;20446;-66
2021/04/24 07:30:16;;;;;;;6.60;4.13;;;;;;;;;;5052824;28;20458;-66
2021/04/24 07:32:42;;;;;;;14.50;4.93;;;;;;;;;;5052983;28;20095;-66
2021/04/24 07:35:08;;;;;;;11.90;5.07;;;;;;;;;;5052856;28;20076;-66
2021/04/24 07:37:33;;;;;;;12.32;4.40;;;;;;;;;;5052674;28;20029;-66
2021/04/24 07:39:59;;;;;;;9.25;4.45;;;;;;;;;;5052592;28;20048;-66
2021/04/24 07:42:24;;;;;;;11.63;5.18;;;;;;;;;;5052597;28;20021;-66
2021/04/24 07:44:49;;;;;;;10.18;4.50;;;;;;;;;;5052861;28;20036;-66
2021/04/24 07:47:14;;;;;;;11.90;5.28;;;;;;;;;;5051370;28;20123;-66
2021/04/24 07:49:40;;;;;;;11.27;4.90;;;;;;;;;;5052753;28;20017;-66
2021/04/24 07:52:06;;;;;;;8.32;4.90;;;;;;;;;;5052714;28;20029;-66
2021/04/24 07:54:33;;;;;;;8.30;4.97;;;;;;;;;;5052584;28;20463;-67
2021/04/24 07:56:59;;;;;;;9.70;4.28;;;;;;;;;;5052736;28;20059;-66
2021/04/24 07:59:25;;;;;;;11.25;5.50;;;;;;;;;;5052912;28;20117;-66
2021/04/24 08:01:50;;;;;;;8.93;4.53;;;;;;;;;;5052619;28;20068;-66
2021/04/24 08:04:16;;;;;;;9.80;4.55;;;;;;;;;;5052638;28;20505;-66
2021/04/24 08:06:41;;;;;;;11.52;4.93;;;;;;;;;;5052554;28;20029;-66
2021/04/24 08:09:06;;;;;;;8.95;5.10;;;;;;;;;;5052333;28;20075;-66
2021/04/24 08:11:32;;;;;;;11.90;5.05;;;;;;;;;;5054377;28;20021;-66
2021/04/24 08:13:58;;;;;;;11.88;5.45;;;;;;;;;;5056041;28;20041;-66
2021/04/24 08:16:23;;;;;;;8.85;5.00;;;;;;;;;;5056089;28;20036;-66
2021/04/24 08:18:48;;;;;;;10.20;5.15;;;;;;;;;;5056386;28;20036;-67
2021/04/24 08:21:15;;;;;;;8.00;4.97;;;;;;;;;;5056113;28;20029;-67
2021/04/24 08:23:40;;;;;;;9.50;4.57;;;;;;;;;;5056068;28;20033;-66
2021/04/24 08:26:06;;;;;;;8.93;4.68;;;;;;;;;;5055972;28;20031;-66
2021/04/24 08:28:31;;;;;;;8.68;4.72;;;;;;;;;;5055991;28;20033;-66
2021/04/24 08:30:56;;;;;;;11.48;5.03;;;;;;;;;;5055947;28;20029;-66
2021/04/24 08:33:21;;;;;;;11.40;4.53;;;;;;;;;;5055922;28;20488;-66
2021/04/24 08:35:47;;;;;;;9.32;5.10;;;;;;;;;;5055779;28;20450;-66
2021/04/24 08:38:12;;;;;;;11.63;5.07;;;;;;;;;;5055949;28;20031;-66
2021/04/24 08:40:37;;;;;;;9.98;5.03;;;;;;;;;;5053950;28;20582;-66
2021/04/24 08:43:03;;;;;;;10.98;5.13;;;;;;;;;;5055488;28;20549;-66
2021/04/24 08:45:29;;;;;;;12.55;5.50;;;;;;;;;;5055576;28;20112;-66
2021/04/24 08:47:54;;;;;;;13.75;5.68;;;;;;;;;;5055417;28;20485;-66
2021/04/24 08:50:22;;;;;;;9.85;4.93;;;;;;;;;;5055578;28;20033;-67
2021/04/24 08:52:48;;;;;;;13.35;5.15;;;;;;;;;;5055560;28;20037;-66
2021/04/24 08:55:17;;;;;;;9.77;5.30;;;;;;;;;;5055546;28;20116;-67
2021/04/24 08:57:43;;;;;;;12.38;5.32;;;;;;;;;;5055406;28;20032;-66
2021/04/24 09:00:08;;;;;;;11.00;4.88;;;;;;;;;;5055543;28;20253;-66
2021/04/24 09:02:34;;;;;;;14.45;5.03;;;;;;;;;;5054989;28;20025;-66
2021/04/24 09:04:59;;;;;;;9.15;4.85;;;;;;;;;;5055391;28;20025;-66
2021/04/24 09:07:25;;;;;;;12.55;6.35;;;;;;;;;;5054935;28;20116;-66
2021/04/24 09:09:58;;;;;;;12.43;4.80;;;;;;;;;;5055315;28;20373;-66
2021/04/24 09:12:36;;;;;;;10.63;5.53;;;;;;;;;;5055053;28;20033;-67
2021/04/24 09:15:07;;;;;;;11.70;5.25;;;;;;;;;;5055150;28;20037;-66
2021/04/24 09:17:51;;;;;;;10.50;5.47;;;;;;;;;;5054760;28;20500;-66
2021/04/24 09:20:17;;;;;;;11.63;5.80;;;;;;;;;;5054988;28;20032;-66
2021/04/24 09:22:42;;;;;;;8.35;4.80;;;;;;;;;;5053674;28;20025;-67
2021/04/24 09:25:08;;;;;;;11.25;5.18;;;;;;;;;;5055023;28;20060;-67
2021/04/24 09:27:46;;;;;;;15.05;5.70;;;;;;;;;;5054767;28;20100;-66
2021/04/24 09:30:17;;;;;;;10.77;5.22;;;;;;;;;;5054896;28;20033;-67
2021/04/24 09:32:43;;;;;;;8.48;5.10;;;;;;;;;;5054778;28;20074;-67
2021/04/24 09:35:08;;;;;;;11.27;5.03;;;;;;;;;;5054494;28;20068;-66
2021/04/24 09:37:33;;;;;;;10.27;5.40;;;;;;;;;;5054669;28;20047;-66
2021/04/24 09:39:59;;;;;;;10.13;5.70;;;;;;;;;;5054859;28;20053;-67
2021/04/24 09:42:35;;;;;;;10.18;5.32;;;;;;;;;;5054454;28;20020;-66
2021/04/24 09:45:00;;;;;;;10.15;5.47;;;;;;;;;;5054573;28;20048;-67
2021/04/24 09:47:38;;;;;;;13.13;6.22;;;;;;;;;;5054236;28;20469;-66
2021/04/24 09:50:13;;;;;;;15.10;5.80;;;;;;;;;;5054565;28;20466;-66
2021/04/24 09:52:39;;;;;;;11.73;6.18;;;;;;;;;;5053961;28;20441;-66
2021/04/24 09:55:04;;;;;;;9.10;5.68;;;;;;;;;;5054440;28;20118;-66
2021/04/24 09:57:33;;;;;;;11.52;5.55;;;;;;;;;;5054265;28;20424;-67
2021/04/24 10:00:05;;;;;;;12.95;6.00;;;;;;;;;;5054435;28;20021;-67
2021/04/24 10:02:34;;;;;;;8.68;5.07;;;;;;;;;;5054167;28;20056;-66
2021/04/24 10:05:08;;;;;;;11.40;5.32;;;;;;;;;;5054302;28;20407;-66
2021/04/24 10:07:37;;;;;;;17.08;5.45;;;;;;;;;;5054018;28;20036;-66
2021/04/24 10:10:04;;;;;;;8.25;4.53;;;;;;;;;;5054093;28;20029;-67
2021/04/24 10:12:30;;;;;;;9.45;5.55;;;;;;;;;;5053936;28;20020;-66
2021/04/24 10:14:56;;;;;;;12.88;5.03;;;;;;;;;;5054026;28;20036;-66
2021/04/24 10:17:21;;;;;;;12.35;5.05;;;;;;;;;;5053886;28;20028;-67
2021/04/24 10:19:47;;;;;;;10.02;5.40;;;;;;;;;;5054086;28;20021;-66
2021/04/24 10:22:17;;;;;;;9.73;5.30;;;;;;;;;;5053838;28;20055;-66
2021/04/24 10:24:43;;;;;;;12.23;5.05;;;;;;;;;;5053555;28;20382;-66
2021/04/24 10:27:10;;;;;;;14.55;5.55;;;;;;;;;;5053457;28;20035;-66
2021/04/24 10:29:35;;;;;;;14.52;5.57;;;;;;;;;;5053743;28;20112;-66
2021/04/24 10:32:01;;;;;;;10.70;5.13;;;;;;;;;;5053724;28;20116;-66
2021/04/24 10:34:26;;;;;;;12.23;5.28;;;;;;;;;;5053758;28;20033;-66
2021/04/24 10:36:52;;;;;;;12.57;5.60;;;;;;;;;;5053567;28;20508;-66
2021/04/24 10:39:24;;;;;;;8.38;4.93;;;;;;;;;;5053480;28;20048;-66
2021/04/24 10:42:00;;;;;;;12.60;5.28;;;;;;;;;;5053204;28;20469;-65
2021/04/24 10:44:42;;;;;;;8.60;4.85;;;;;;;;;;5053474;28;20039;-66
2021/04/24 10:47:08;;;;;;;8.80;4.55;;;;;;;;;;5053437;28;20044;-65
2021/04/24 10:49:33;;;;;;;16.30;5.65;;;;;;;;;;5053089;28;20033;-65
2021/04/24 10:52:17;;;;;;;8.15;4.20;;;;;;;;;;5053340;28;20033;-65
2021/04/24 10:54:42;;;;;;;13.48;5.70;;;;;;;;;;5053215;28;20037;-65
2021/04/24 10:57:30;;;;;;;8.95;5.57;;;;;;;;;;5053311;28;20397;-65
2021/04/24 10:59:56;;;;;;;11.82;4.30;;;;;;;;;;5053151;28;20025;-65
2021/04/24 11:02:37;;;;;;;12.05;4.78;;;;;;;;;;5053235;28;20040;-65
2021/04/24 11:05:14;;;;;;;9.38;4.30;;;;;;;;;;5052978;28;20397;-65
2021/04/24 11:07:40;;;;;;;9.93;4.18;;;;;;;;;;5053064;28;20033;-65
2021/04/24 11:10:11;;;;;;;10.57;4.13;;;;;;;;;;5053256;28;20020;-65
2021/04/24 11:12:46;;;;;;;10.57;4.50;;;;;;;;;;5052702;28;20510;-65
2021/04/24 11:15:14;;;;;;;26.52;6.03;;;;;;;;;;5053117;28;20048;-65
2021/04/24 11:17:40;;;;;;;9.98;4.35;;;;;;;;;;5052983;28;20055;-65
2021/04/24 11:20:07;;;;;;;10.73;4.18;;;;;;;;;;5053114;28;20454;-65
2021/04/24 11:22:35;;;;;;;9.95;4.57;;;;;;;;;;5052544;28;20459;-65
2021/04/24 11:25:20;;;;;;;11.73;4.43;;;;;;;;;;5053108;28;20051;-65
2021/04/24 11:28:04;;;;;;;10.40;4.22;;;;;;;;;;5052477;28;20558;-65
2021/04/24 11:30:47;;;;;;;9.02;4.20;;;;;;;;;;5052911;28;20123;-65
2021/04/24 11:33:31;;;;;;;10.85;4.95;;;;;;;;;;5052781;28;20029;-65
2021/04/24 11:36:22;;;;;;;12.48;4.38;;;;;;;;;;5052910;28;20036;-65
2021/04/24 11:39:07;;;;;;;13.77;5.07;;;;;;;;;;5052754;28;20064;-65
2021/04/24 11:41:39;;;;;;;12.50;4.22;;;;;;;;;;5051783;28;20448;-65
2021/04/24 11:44:26;;;;;;;13.43;4.15;;;;;;;;;;5052932;28;20031;-65
2021/04/24 11:46:53;;;;;;;10.45;4.07;;;;;;;;;;5055616;28;20091;-65
2021/04/24 11:49:19;;;;;;;7.97;3.95;;;;;;;;;;5056607;28;20531;-65
2021/04/24 11:51:49;;;;;;;9.95;4.00;;;;;;;;;;5056312;28;20487;-65
2021/04/24 11:54:21;;;;;;;10.20;4.60;;;;;;;;;;5056738;28;20028;-65
2021/04/24 11:56:47;;;;;;;8.00;4.03;;;;;;;;;;5056546;28;20029;-65
2021/04/24 11:59:18;;;;;;;10.93;4.80;;;;;;;;;;5056744;28;20075;-65
2021/04/24 12:01:44;;;;;;;11.68;4.75;;;;;;;;;;5056425;28;20096;-65
2021/04/24 12:04:22;;;;;;;9.73;4.32;;;;;;;;;;5056821;28;20056;-65
2021/04/24 12:06:47;;;;;;;15.07;4.95;;;;;;;;;;5056271;28;20083;-65
2021/04/24 12:09:13;;;;;;;8.85;3.92;;;;;;;;;;5056508;28;20056;-65
2021/04/24 12:11:40;;;;;;;11.18;5.15;;;;;;;;;;5055879;28;20397;-65
2021/04/24 12:14:05;;;;;;;11.70;4.93;;;;;;;;;;5056399;28;20458;-65
2021/04/24 12:16:41;;;;;;;8.93;4.43;;;;;;;;;;5056076;28;20049;-65
2021/04/24 12:19:06;;;;;;;;;;;;;;;;;;5056813;28;20029;-64
2021/04/24 12:21:31;;;;;;;;;;;;;;;;;;5056491;28;19908;-64
2021/04/24 12:23:57;;;;;;;7.97;4.00;;;;;;;;;;5056247;28;19905;-65
2021/04/24 12:26:31;;;;;;;10.68;5.28;;;;;;;;;;5055916;28;20055;-65
2021/04/24 12:28:56;;;;;;;7.97;4.45;;;;;;;;;;5054530;28;20048;-65
2021/04/24 12:31:28;;;;;;;8.20;3.97;;;;;;;;;;5054980;28;20370;-65
2021/04/24 12:33:53;;;;;;;8.63;4.40;;;;;;;;;;5052713;28;20049;-65
2021/04/24 12:36:19;;;;;;;8.70;4.47;;;;;;;;;;5055039;28;20623;-65
2021/04/24 12:38:44;;;;;;;10.20;4.43;;;;;;;;;;5054470;28;20029;-65
2021/04/24 12:41:12;;;;;;;10.30;4.50;;;;;;;;;;5054717;28;20029;-67
2021/04/24 12:43:39;;;;;;;9.65;4.55;;;;;;;;;;5053672;28;20029;-67
2021/04/24 12:46:05;;;;;;;14.20;4.43;;;;;;;;;;5055393;28;20115;-64
2021/04/24 12:48:45;;;;;;;7.45;4.03;;;;;;;;;;5054993;28;20389;-64
2021/04/24 12:51:14;;;;;;;9.48;3.92;;;;;;;;;;5055286;28;20032;-65
2021/04/24 12:53:41;;;;;;;9.23;4.05;;;;;;;;;;5054754;28;20043;-65
2021/04/24 12:56:07;;;;;;;9.55;4.43;;;;;;;;;;5055248;28;20009;-65
2021/04/24 12:58:34;;;;;;;8.23;4.18;;;;;;;;;;5053565;28;20025;-65
2021/04/24 13:01:07;;;;;;;8.82;3.58;;;;;;;;;;5055110;28;20048;-65
2021/04/24 13:03:33;;;;;;;7.57;3.88;;;;;;;;;;5054747;28;20025;-65
2021/04/24 13:06:09;;;;;;;10.82;3.75;;;;;;;;;;5055106;28;20059;-65
2021/04/24 13:08:34;;;;;;;14.13;4.10;;;;;;;;;;5054817;28;20112;-65
2021/04/24 13:11:08;;;;;;;9.93;4.13;;;;;;;;;;5054980;28;20063;-65
2021/04/24 13:13:33;;;;;;;9.85;4.30;;;;;;;;;;5053889;28;20086;-65
2021/04/24 13:15:59;;;;;;;9.43;4.32;;;;;;;;;;5054420;28;20037;-65
2021/04/24 13:18:25;;;;;;;11.07;4.57;;;;;;;;;;5054812;28;20121;-65
2021/04/24 13:20:51;;;;;;;11.98;4.63;;;;;;;;;;5053419;28;20462;-65
2021/04/24 13:23:17;;;;;;;12.15;4.50;;;;;;;;;;5054091;28;20112;-65
2021/04/24 13:25:42;;;;;;;6.60;3.63;;;;;;;;;;5053874;28;20462;-65
2021/04/24 13:28:07;;;;;;;9.15;5.13;;;;;;;;;;5053942;28;20404;-65
2021/04/24 13:30:40;;;;;;;9.60;3.88;;;;;;;;;;5054262;28;20033;-65
2021/04/24 13:33:06;;;;;;;10.48;5.38;;;;;;;;;;5054403;28;20029;-65
2021/04/24 13:35:43;;;;;;;10.70;4.63;;;;;;;;;;5054835;28;20493;-65
2021/04/24 13:38:08;;;;;;;8.95;4.57;;;;;;;;;;5054571;28;20029;-65
2021/04/24 13:40:34;;;;;;;9.27;5.10;;;;;;;;;;5054368;28;20106;-65
2021/04/24 13:42:59;;;;;;;8.55;5.05;;;;;;;;;;5054147;28;20457;-64
2021/04/24 13:45:26;;;;;;;7.63;3.45;;;;;;;;;;5054028;28;20033;-64
2021/04/24 13:47:51;;;;;;;8.43;5.10;;;;;;;;;;5053767;28;20500;-65
2021/04/24 13:50:20;;;;;;;10.82;4.72;;;;;;;;;;5054480;28;20052;-65
2021/04/24 13:52:45;;;;;;;9.40;4.03;;;;;;;;;;5054305;28;20029;-65
2021/04/24 13:55:11;;;;;;;12.35;5.95;;;;;;;;;;5054092;28;20039;-65
2021/04/24 13:57:36;;;;;;;12.60;5.00;;;;;;;;;;5053111;28;20029;-65
2021/04/24 14:00:02;;;;;;;11.63;5.30;;;;;;;;;;5054433;28;20036;-65
2021/04/24 14:02:28;;;;;;;11.15;5.50;;;;;;;;;;5053399;28;20496;-65
2021/04/24 14:04:53;;;;;;;12.35;4.93;;;;;;;;;;5053845;28;20021;-65
2021/04/24 14:07:18;;;;;;;9.32;5.38;;;;;;;;;;5053565;28;20074;-65
2021/04/24 14:09:43;;;;;;;16.30;5.35;;;;;;;;;;5052238;28;20121;-65
2021/04/24 14:12:12;;;;;;;11.02;5.22;;;;;;;;;;5053353;28;20028;-65
2021/04/24 14:14:41;;;;;;;11.40;4.10;;;;;;;;;;5053210;28;20049;-65
2021/04/24 14:17:06;;;;;;;9.38;4.80;;;;;;;;;;5051944;28;20116;-65
2021/04/24 14:19:32;;;;;;;12.10;4.85;;;;;;;;;;5052730;28;20518;-67
2021/04/24 14:21:57;;;;;;;11.02;4.45;;;;;;;;;;5053042;28;20078;-67
2021/04/24 14:24:23;;;;;;;7.72;4.53;;;;;;;;;;5052981;28;20112;-67
2021/04/24 14:26:48;;;;;;;12.40;5.03;;;;;;;;;;5052698;28;20576;-65
2021/04/24 14:29:14;;;;;;;9.77;4.60;;;;;;;;;;5052774;28;20056;-65
2021/04/24 14:31:40;;;;;;;11.75;4.75;;;;;;;;;;5052897;28;20037;-65
2021/04/24 14:34:05;;;;;;;7.55;3.53;;;;;;;;;;5053039;28;20040;-65